createdAt,value
2022-08-03T00:00:32.000Z,83.13
2022-08-03T00:01:32.000Z,83.23
2022-08-03T00:02:32.000Z,83.74
2022-08-03T00:03:32.000Z,83.23
2022-08-03T00:04:32.000Z,82.73
2022-08-03T00:05:32.000Z,82.62
2022-08-03T00:06:32.000Z,83.23
2022-08-03T00:07:32.000Z,82.93
2022-08-03T00:08:32.000Z,82.53
2022-08-03T00:09:32.000Z,83.54
2022-08-03T00:10:32.000Z,84.75
2022-08-03T00:11:32.000Z,83.74
2022-08-03T00:12:32.000Z,84.04
2022-08-03T00:13:32.000Z,84.45
2022-08-03T00:14:32.000Z,84.85
2022-08-03T00:15:32.000Z,85.25
2022-08-03T00:16:32.000Z,84.79
2022-08-03T00:17:32.000Z,84.69
2022-08-03T00:18:32.000Z,84.69
2022-08-03T00:19:32.000Z,84.89
2022-08-03T00:20:32.000Z,85.13
2022-08-03T00:21:32.000Z,85.10
2022-08-03T00:22:32.000Z,84.99
2022-08-03T00:23:33.000Z,85.13
2022-08-03T00:24:33.000Z,85.60
2022-08-03T00:24:33.000Z,85.60
2022-08-03T00:24:33.000Z,85.60
2022-08-03T00:25:33.000Z,85.90
2022-08-03T00:25:33.000Z,85.90
2022-08-03T00:25:33.000Z,85.90
2022-08-03T00:26:33.000Z,85.90
2022-08-03T00:26:33.000Z,85.90
2022-08-03T00:26:33.000Z,85.90
2022-08-03T00:27:33.000Z,85.90
2022-08-03T00:27:33.000Z,85.90
2022-08-03T00:27:33.000Z,85.90
2022-08-03T00:28:33.000Z,85.50
2022-08-03T00:28:33.000Z,85.50
2022-08-03T00:28:33.000Z,85.50
2022-08-03T00:29:33.000Z,85.50
2022-08-03T00:29:33.000Z,85.50
2022-08-03T00:30:33.000Z,84.99
2022-08-03T00:30:33.000Z,84.99
2022-08-03T00:31:33.000Z,85.19
2022-08-03T00:31:33.000Z,85.19
2022-08-03T00:32:33.000Z,85.30
2022-08-03T00:32:33.000Z,85.30
2022-08-03T00:33:33.000Z,85.60
2022-08-03T00:33:33.000Z,85.60
2022-08-03T00:34:33.000Z,85.50
2022-08-03T00:35:33.000Z,85.50
2022-08-03T00:36:33.000Z,86.00
2022-08-03T00:37:33.000Z,86.10
2022-08-03T00:38:33.000Z,86.00
2022-08-03T00:39:33.000Z,84.48
2022-08-03T00:40:33.000Z,83.47
2022-08-03T00:41:33.000Z,83.21
2022-08-03T00:42:33.000Z,83.41
2022-08-03T00:43:33.000Z,83.72
2022-08-03T00:44:33.000Z,84.02
2022-08-03T00:45:33.000Z,84.06
2022-08-03T00:46:33.000Z,84.87
2022-08-03T00:47:33.000Z,85.48
2022-08-03T00:48:34.000Z,86.19
2022-08-03T00:49:34.000Z,87.20
2022-08-03T00:50:34.000Z,86.69
2022-08-03T00:51:34.000Z,86.39
2022-08-03T00:52:34.000Z,86.59
2022-08-03T00:53:34.000Z,86.69
2022-08-03T00:54:34.000Z,86.49
2022-08-03T00:55:34.000Z,85.99
2022-08-03T00:56:34.000Z,85.78
2022-08-03T00:57:34.000Z,87.00
2022-08-03T00:58:34.000Z,86.90
2022-08-03T00:59:34.000Z,86.79
2022-08-03T01:00:34.000Z,86.29
2022-08-03T01:01:34.000Z,86.08
2022-08-03T01:02:34.000Z,85.78
2022-08-03T01:03:34.000Z,86.90
2022-08-03T01:04:34.000Z,86.90
2022-08-03T01:05:34.000Z,86.59
2022-08-03T01:06:34.000Z,86.79
2022-08-03T01:07:34.000Z,87.00
2022-08-03T01:08:34.000Z,87.00
2022-08-03T01:09:34.000Z,86.39
2022-08-03T01:10:34.000Z,86.49
2022-08-03T01:11:35.000Z,87.00
2022-08-03T01:12:35.000Z,86.90
2022-08-03T01:13:35.000Z,86.69
2022-08-03T01:14:35.000Z,86.79
2022-08-03T01:15:35.000Z,86.90
2022-08-03T01:16:35.000Z,87.00
2022-08-03T01:17:35.000Z,87.51
2022-08-03T01:18:35.000Z,87.60
2022-08-03T01:19:35.000Z,87.20
2022-08-03T01:20:35.000Z,86.69
2022-08-03T01:21:35.000Z,86.39
2022-08-03T01:22:35.000Z,86.90
2022-08-03T01:23:35.000Z,86.49
2022-08-03T01:24:35.000Z,87.71
2022-08-03T01:25:35.000Z,88.11
2022-08-03T01:26:35.000Z,87.30
2022-08-03T01:27:35.000Z,87.91
2022-08-03T01:28:35.000Z,88.42
2022-08-03T01:29:35.000Z,88.21
2022-08-03T01:30:35.000Z,87.91
2022-08-03T01:31:35.000Z,88.82
2022-08-03T01:32:35.000Z,88.62
2022-08-03T01:33:35.000Z,88.21
2022-08-03T01:34:36.000Z,88.21
2022-08-03T01:35:36.000Z,88.01
2022-08-03T01:36:36.000Z,88.01
2022-08-03T01:37:36.000Z,88.62
2022-08-03T01:38:36.000Z,89.43
2022-08-03T01:39:36.000Z,89.23
2022-08-03T01:40:36.000Z,88.82
2022-08-03T01:41:36.000Z,88.86
2022-08-03T01:42:36.000Z,88.66
2022-08-03T01:43:36.000Z,88.66
2022-08-03T01:44:36.000Z,89.17
2022-08-03T01:45:36.000Z,89.67
2022-08-03T01:46:36.000Z,89.47
2022-08-03T01:47:36.000Z,89.37
2022-08-03T01:48:36.000Z,89.26
2022-08-03T01:49:36.000Z,89.17
2022-08-03T01:50:36.000Z,89.06
2022-08-03T01:51:36.000Z,88.96
2022-08-03T01:52:36.000Z,88.96
2022-08-03T01:53:36.000Z,88.76
2022-08-03T01:54:36.000Z,88.35
2022-08-03T01:55:36.000Z,88.25
2022-08-03T01:56:36.000Z,88.56
2022-08-03T01:57:37.000Z,88.66
2022-08-03T01:58:37.000Z,88.96
2022-08-03T01:59:37.000Z,88.86
2022-08-03T02:00:37.000Z,89.17
2022-08-03T02:01:37.000Z,89.37
2022-08-03T02:02:37.000Z,89.47
2022-08-03T02:03:37.000Z,89.57
2022-08-03T02:04:37.000Z,89.77
2022-08-03T02:05:37.000Z,89.77
2022-08-03T02:06:37.000Z,89.77
2022-08-03T02:07:37.000Z,89.77
2022-08-03T02:08:37.000Z,89.57
2022-08-03T02:09:37.000Z,89.47
2022-08-03T02:10:37.000Z,90.89
2022-08-03T02:11:37.000Z,91.39
2022-08-03T02:12:37.000Z,91.50
2022-08-03T02:13:37.000Z,91.60
2022-08-03T02:14:37.000Z,91.60
2022-08-03T02:15:37.000Z,91.60
2022-08-03T02:16:37.000Z,91.60
2022-08-03T02:17:37.000Z,91.30
2022-08-03T02:18:37.000Z,90.99
2022-08-03T02:19:37.000Z,90.69
2022-08-03T02:20:37.000Z,90.38
2022-08-03T02:21:38.000Z,90.48
2022-08-03T02:22:38.000Z,91.09
2022-08-03T02:23:38.000Z,91.39
2022-08-03T02:24:38.000Z,91.30
2022-08-03T02:25:38.000Z,91.09
2022-08-03T02:26:38.000Z,90.79
2022-08-03T02:27:38.000Z,90.38
2022-08-03T02:28:38.000Z,90.38
2022-08-03T02:29:38.000Z,90.79
2022-08-03T02:30:38.000Z,91.30
2022-08-03T02:31:38.000Z,90.84
2022-08-03T02:32:38.000Z,90.58
2022-08-03T02:33:38.000Z,90.48
2022-08-03T02:34:38.000Z,90.34
2022-08-03T02:35:38.000Z,90.44
2022-08-03T02:36:38.000Z,90.44
2022-08-03T02:37:38.000Z,90.84
2022-08-03T02:38:38.000Z,90.64
2022-08-03T02:39:38.000Z,90.64
2022-08-03T02:40:38.000Z,90.64
2022-08-03T02:41:38.000Z,90.99
2022-08-03T02:42:38.000Z,91.15
2022-08-03T02:43:38.000Z,90.99
2022-08-03T02:44:38.000Z,90.99
2022-08-03T02:45:39.000Z,90.99
2022-08-03T02:46:39.000Z,90.89
2022-08-03T02:47:39.000Z,90.79
2022-08-03T02:48:39.000Z,90.89
2022-08-03T02:49:39.000Z,90.89
2022-08-03T02:50:39.000Z,91.30
2022-08-03T02:51:39.000Z,91.90
2022-08-03T02:52:39.000Z,92.00
2022-08-03T02:53:39.000Z,91.80
2022-08-03T02:54:39.000Z,91.70
2022-08-03T02:55:39.000Z,91.70
2022-08-03T02:56:39.000Z,91.70
2022-08-03T02:57:39.000Z,91.70
2022-08-03T02:58:39.000Z,91.60
2022-08-03T02:59:39.000Z,91.90
2022-08-03T02:59:39.000Z,91.90
2022-08-03T03:00:39.000Z,92.41
2022-08-03T03:00:39.000Z,92.41
2022-08-03T03:01:39.000Z,92.82
2022-08-03T03:01:39.000Z,92.82
2022-08-03T03:02:39.000Z,92.82
2022-08-03T03:02:39.000Z,92.82
2022-08-03T03:03:39.000Z,92.61
2022-08-03T03:03:39.000Z,92.61
2022-08-03T03:04:39.000Z,92.82
2022-08-03T03:05:39.000Z,93.02
2022-08-03T03:06:39.000Z,92.82
2022-08-03T03:07:39.000Z,92.71
2022-08-03T03:08:39.000Z,92.61
2022-08-03T03:09:39.000Z,92.61
2022-08-03T03:10:39.000Z,92.41
2022-08-03T03:11:39.000Z,92.10
2022-08-03T03:12:40.000Z,91.80
2022-08-03T03:13:40.000Z,92.00
2022-08-03T03:14:40.000Z,91.90
2022-08-03T03:15:40.000Z,91.90
2022-08-03T03:16:40.000Z,92.41
2022-08-03T03:17:40.000Z,92.71
2022-08-03T03:18:40.000Z,92.51
2022-08-03T03:19:40.000Z,92.31
2022-08-03T03:20:40.000Z,92.10
2022-08-03T03:21:40.000Z,92.21
2022-08-03T03:22:40.000Z,92.10
2022-08-03T03:23:40.000Z,91.90
2022-08-03T03:24:40.000Z,92.45
2022-08-03T03:25:40.000Z,92.86
2022-08-03T03:26:40.000Z,92.76
2022-08-03T03:27:40.000Z,92.86
2022-08-03T03:28:40.000Z,93.16
2022-08-03T03:29:40.000Z,93.16
2022-08-03T03:30:40.000Z,92.96
2022-08-03T03:31:40.000Z,92.86
2022-08-03T03:32:40.000Z,92.76
2022-08-03T03:33:40.000Z,92.86
2022-08-03T03:34:41.000Z,92.76
2022-08-03T03:35:41.000Z,92.25
2022-08-03T03:36:41.000Z,91.85
2022-08-03T03:37:41.000Z,91.54
2022-08-03T03:38:41.000Z,91.44
2022-08-03T03:39:41.000Z,91.34
2022-08-03T03:40:41.000Z,91.44
2022-08-03T03:41:41.000Z,91.44
2022-08-03T03:42:41.000Z,91.44
2022-08-03T03:43:41.000Z,91.64
2022-08-03T03:44:41.000Z,91.34
2022-08-03T03:45:41.000Z,91.13
2022-08-03T03:46:41.000Z,91.13
2022-08-03T03:47:41.000Z,91.03
2022-08-03T03:48:41.000Z,90.93
2022-08-03T03:49:41.000Z,90.62
2022-08-03T03:50:41.000Z,90.83
2022-08-03T03:51:41.000Z,90.58
2022-08-03T03:52:41.000Z,90.38
2022-08-03T03:53:41.000Z,90.48
2022-08-03T03:54:41.000Z,91.09
2022-08-03T03:55:41.000Z,91.09
2022-08-03T03:56:42.000Z,91.30
2022-08-03T03:57:42.000Z,91.39
2022-08-03T03:58:42.000Z,91.39
2022-08-03T03:59:42.000Z,91.09
2022-08-03T04:00:42.000Z,90.89
2022-08-03T04:01:42.000Z,90.99
2022-08-03T04:02:42.000Z,91.09
2022-08-03T04:03:42.000Z,90.99
2022-08-03T04:04:42.000Z,90.93
2022-08-03T04:05:42.000Z,90.69
2022-08-03T04:06:42.000Z,90.69
2022-08-03T04:07:42.000Z,90.69
2022-08-03T04:08:42.000Z,90.73
2022-08-03T04:09:42.000Z,90.73
2022-08-03T04:10:42.000Z,90.62
2022-08-03T04:11:42.000Z,90.42
2022-08-03T04:12:42.000Z,90.18
2022-08-03T04:13:42.000Z,89.98
2022-08-03T04:14:42.000Z,90.08
2022-08-03T04:15:42.000Z,90.58
2022-08-03T04:16:42.000Z,90.69
2022-08-03T04:17:42.000Z,90.48
2022-08-03T04:18:43.000Z,90.38
2022-08-03T04:19:43.000Z,90.38
2022-08-03T04:20:43.000Z,90.28
2022-08-03T04:21:43.000Z,90.08
2022-08-03T04:22:43.000Z,89.98
2022-08-03T04:23:43.000Z,89.77
2022-08-03T04:24:43.000Z,89.87
2022-08-03T04:25:43.000Z,89.87
2022-08-03T04:26:43.000Z,90.03
2022-08-03T04:27:43.000Z,89.94
2022-08-03T04:28:43.000Z,90.14
2022-08-03T04:29:43.000Z,89.94
2022-08-03T04:30:43.000Z,89.83
2022-08-03T04:31:43.000Z,89.73
2022-08-03T04:32:43.000Z,89.63
2022-08-03T04:33:43.000Z,89.23
2022-08-03T04:34:43.000Z,89.02
2022-08-03T04:35:43.000Z,88.98
2022-08-03T04:36:43.000Z,88.78
2022-08-03T04:37:43.000Z,89.08
2022-08-03T04:38:43.000Z,88.57
2022-08-03T04:39:43.000Z,87.87
2022-08-03T04:40:44.000Z,86.96
2022-08-03T04:41:44.000Z,86.51
2022-08-03T04:42:44.000Z,86.10
2022-08-03T04:43:44.000Z,86.10
2022-08-03T04:44:44.000Z,86.00
2022-08-03T04:45:44.000Z,85.86
2022-08-03T04:46:44.000Z,85.76
2022-08-03T04:47:44.000Z,85.86
2022-08-03T04:48:44.000Z,85.56
2022-08-03T04:49:44.000Z,85.76
2022-08-03T04:50:44.000Z,85.42
2022-08-03T04:51:44.000Z,85.42
2022-08-03T04:52:44.000Z,85.42
2022-08-03T04:53:44.000Z,85.11
2022-08-03T04:54:44.000Z,84.61
2022-08-03T04:55:44.000Z,84.17
2022-08-03T04:56:44.000Z,83.90
2022-08-03T04:57:44.000Z,83.05
2022-08-03T04:58:44.000Z,82.75
2022-08-03T04:59:44.000Z,82.24
2022-08-03T05:00:44.000Z,82.35
2022-08-03T05:01:44.000Z,82.45
2022-08-03T05:02:44.000Z,81.50
2022-08-03T05:03:44.000Z,81.50
2022-08-03T05:04:44.000Z,81.90
2022-08-03T05:04:44.000Z,81.90
2022-08-03T05:05:45.000Z,82.10
2022-08-03T05:05:45.000Z,82.10
2022-08-03T05:06:45.000Z,80.35
2022-08-03T05:06:45.000Z,80.35
2022-08-03T05:07:45.000Z,80.15
2022-08-03T05:07:45.000Z,80.15
2022-08-03T05:08:45.000Z,80.05
2022-08-03T05:08:45.000Z,80.05
2022-08-03T05:09:45.000Z,80.05
2022-08-03T05:10:45.000Z,80.31
2022-08-03T05:11:45.000Z,80.62
2022-08-03T05:12:45.000Z,80.92
2022-08-03T05:13:45.000Z,80.72
2022-08-03T05:14:45.000Z,80.72
2022-08-03T05:15:45.000Z,81.08
2022-08-03T05:16:45.000Z,80.78
2022-08-03T05:17:45.000Z,79.47
2022-08-03T05:18:45.000Z,80.18
2022-08-03T05:19:45.000Z,78.66
2022-08-03T05:20:45.000Z,77.92
2022-08-03T05:21:45.000Z,78.42
2022-08-03T05:22:45.000Z,77.62
2022-08-03T05:23:45.000Z,77.51
2022-08-03T05:24:45.000Z,77.08
2022-08-03T05:25:45.000Z,75.96
2022-08-03T05:26:45.000Z,76.37
2022-08-03T05:27:45.000Z,76.27
2022-08-03T05:28:45.000Z,76.57
2022-08-03T05:29:45.000Z,75.43
2022-08-03T05:30:45.000Z,76.14
2022-08-03T05:31:45.000Z,76.14
2022-08-03T05:32:45.000Z,75.63
2022-08-03T05:33:45.000Z,74.02
2022-08-03T05:34:45.000Z,74.08
2022-08-03T05:35:45.000Z,74.69
2022-08-03T05:36:45.000Z,74.49
2022-08-03T05:37:45.000Z,74.18
2022-08-03T05:38:45.000Z,74.58
2022-08-03T05:39:45.000Z,75.15
2022-08-03T05:40:45.000Z,74.35
2022-08-03T05:41:45.000Z,75.15
2022-08-03T05:42:45.000Z,74.95
2022-08-03T05:43:45.000Z,74.15
2022-08-03T05:44:46.000Z,73.55
2022-08-03T05:45:46.000Z,74.05
2022-08-03T05:46:46.000Z,73.85
2022-08-03T05:47:46.000Z,72.71
2022-08-03T05:48:46.000Z,72.20
2022-08-03T05:49:46.000Z,72.50
2022-08-03T05:50:46.000Z,73.00
2022-08-03T05:51:46.000Z,72.50
2022-08-03T05:52:46.000Z,72.07
2022-08-03T05:53:46.000Z,71.87
2022-08-03T05:54:46.000Z,72.17
2022-08-03T05:55:46.000Z,72.37
2022-08-03T05:56:46.000Z,71.67
2022-08-03T05:57:46.000Z,71.53
2022-08-03T05:58:46.000Z,71.23
2022-08-03T05:59:46.000Z,70.73
2022-08-03T06:00:46.000Z,70.09
2022-08-03T06:01:46.000Z,69.19
2022-08-03T06:02:46.000Z,68.68
2022-08-03T06:03:46.000Z,68.29
2022-08-03T06:04:46.000Z,67.85
2022-08-03T06:04:46.000Z,67.85
2022-08-03T06:05:46.000Z,68.15
2022-08-03T06:05:46.000Z,68.15
2022-08-03T06:06:46.000Z,67.65
2022-08-03T06:06:46.000Z,67.65
2022-08-03T06:07:46.000Z,67.35
2022-08-03T06:07:46.000Z,67.35
2022-08-03T06:08:46.000Z,67.02
2022-08-03T06:08:46.000Z,67.02
2022-08-03T06:09:46.000Z,65.81
2022-08-03T06:10:46.000Z,66.11
2022-08-03T06:11:46.000Z,66.91
2022-08-03T06:12:46.000Z,65.11
2022-08-03T06:13:46.000Z,64.48
2022-08-03T06:14:46.000Z,65.38
2022-08-03T06:15:46.000Z,64.68
2022-08-03T06:16:46.000Z,65.28
2022-08-03T06:17:46.000Z,65.08
2022-08-03T06:18:46.000Z,65.68
2022-08-03T06:19:46.000Z,65.75
2022-08-03T06:20:46.000Z,65.45
2022-08-03T06:21:46.000Z,65.65
2022-08-03T06:22:46.000Z,66.05
2022-08-03T06:23:46.000Z,64.75
2022-08-03T06:24:46.000Z,64.54
2022-08-03T06:25:46.000Z,65.35
2022-08-03T06:26:46.000Z,63.31
2022-08-03T06:27:46.000Z,63.11
2022-08-03T06:28:46.000Z,63.11
2022-08-03T06:29:46.000Z,62.51
2022-08-03T06:30:46.000Z,62.68
2022-08-03T06:31:46.000Z,63.28
2022-08-03T06:32:46.000Z,63.28
2022-08-03T06:33:46.000Z,63.08
2022-08-03T06:34:46.000Z,63.45
2022-08-03T06:35:46.000Z,63.65
2022-08-03T06:36:46.000Z,64.55
2022-08-03T06:37:46.000Z,62.95
2022-08-03T06:38:46.000Z,63.95
2022-08-03T06:39:46.000Z,61.55
2022-08-03T06:40:46.000Z,63.53
2022-08-03T06:41:46.000Z,61.62
2022-08-03T06:42:46.000Z,59.22
2022-08-03T06:43:46.000Z,60.22
2022-08-03T06:44:46.000Z,60.42
2022-08-03T06:44:46.000Z,60.42
2022-08-03T06:45:46.000Z,60.49
2022-08-03T06:45:46.000Z,60.49
2022-08-03T06:46:46.000Z,59.59
2022-08-03T06:46:46.000Z,59.59
2022-08-03T06:47:46.000Z,60.19
2022-08-03T06:47:46.000Z,60.19
2022-08-03T06:48:46.000Z,60.10
2022-08-03T06:48:46.000Z,60.10
2022-08-03T06:49:46.000Z,58.80
2022-08-03T06:50:46.000Z,59.30
2022-08-03T06:51:46.000Z,59.99
2022-08-03T06:52:46.000Z,61.76
2022-08-03T06:53:46.000Z,58.76
2022-08-03T06:54:46.000Z,56.67
2022-08-03T06:54:46.000Z,56.67
2022-08-03T06:55:46.000Z,55.66
2022-08-03T06:55:46.000Z,55.66
2022-08-03T06:56:46.000Z,57.74
2022-08-03T06:56:46.000Z,57.74
2022-08-03T06:57:46.000Z,57.54
2022-08-03T06:57:46.000Z,57.54
2022-08-03T06:58:46.000Z,56.54
2022-08-03T06:58:46.000Z,56.54
2022-08-03T06:59:46.000Z,56.84
2022-08-03T07:00:46.000Z,56.24
2022-08-03T07:01:46.000Z,57.04
2022-08-03T07:02:46.000Z,57.91
2022-08-03T07:03:46.000Z,57.01
2022-08-03T07:04:46.000Z,55.71
2022-08-03T07:05:46.000Z,55.71
2022-08-03T07:06:45.000Z,55.32
2022-08-03T07:07:45.000Z,55.11
2022-08-03T07:08:45.000Z,55.02
2022-08-03T07:09:45.000Z,54.59
2022-08-03T07:09:45.000Z,54.59
2022-08-03T07:10:45.000Z,54.69
2022-08-03T07:10:45.000Z,54.69
2022-08-03T07:11:45.000Z,54.99
2022-08-03T07:11:45.000Z,54.99
2022-08-03T07:12:45.000Z,54.69
2022-08-03T07:12:45.000Z,54.69
2022-08-03T07:13:45.000Z,54.96
2022-08-03T07:13:45.000Z,54.96
2022-08-03T07:14:45.000Z,55.26
2022-08-03T07:15:45.000Z,55.76
2022-08-03T07:16:45.000Z,54.36
2022-08-03T07:17:45.000Z,54.76
2022-08-03T07:18:45.000Z,54.96
2022-08-03T07:19:45.000Z,54.27
2022-08-03T07:20:45.000Z,56.06
2022-08-03T07:21:45.000Z,56.03
2022-08-03T07:22:45.000Z,54.14
2022-08-03T07:23:45.000Z,53.14
2022-08-03T07:24:45.000Z,56.81
2022-08-03T07:25:45.000Z,54.81
2022-08-03T07:26:45.000Z,55.21
2022-08-03T07:27:45.000Z,54.91
2022-08-03T07:28:45.000Z,54.11
2022-08-03T07:29:45.000Z,53.91
2022-08-03T07:29:45.000Z,53.91
2022-08-03T07:30:45.000Z,51.92
2022-08-03T07:30:45.000Z,51.92
2022-08-03T07:31:45.000Z,52.22
2022-08-03T07:31:45.000Z,52.22
2022-08-03T07:32:45.000Z,52.02
2022-08-03T07:32:45.000Z,52.02
2022-08-03T07:33:45.000Z,52.19
2022-08-03T07:33:45.000Z,52.19
2022-08-03T07:34:45.000Z,52.29
2022-08-03T07:35:45.000Z,53.29
2022-08-03T07:36:45.000Z,55.18
2022-08-03T07:37:45.000Z,55.68
2022-08-03T07:38:45.000Z,52.00
2022-08-03T07:39:45.000Z,52.47
2022-08-03T07:40:45.000Z,51.57
2022-08-03T07:41:45.000Z,50.78
2022-08-03T07:42:45.000Z,52.57
2022-08-03T07:43:45.000Z,52.07
2022-08-03T07:44:45.000Z,52.37
2022-08-03T07:45:45.000Z,53.74
2022-08-03T07:46:45.000Z,52.64
2022-08-03T07:47:45.000Z,51.54
2022-08-03T07:48:45.000Z,52.24
2022-08-03T07:49:44.000Z,51.42
2022-08-03T07:50:44.000Z,50.63
2022-08-03T07:51:44.000Z,51.32
2022-08-03T07:52:44.000Z,50.52
2022-08-03T07:53:44.000Z,51.82
2022-08-03T07:54:44.000Z,53.02
2022-08-03T07:54:44.000Z,53.02
2022-08-03T07:55:44.000Z,51.79
2022-08-03T07:55:44.000Z,51.79
2022-08-03T07:56:44.000Z,50.20
2022-08-03T07:56:44.000Z,50.20
2022-08-03T07:57:44.000Z,49.80
2022-08-03T07:57:44.000Z,49.80
2022-08-03T07:58:44.000Z,49.71
2022-08-03T07:58:44.000Z,49.71
2022-08-03T07:59:44.000Z,49.68
2022-08-03T08:00:44.000Z,49.58
2022-08-03T08:01:44.000Z,49.78
2022-08-03T08:02:44.000Z,49.88
2022-08-03T08:03:44.000Z,49.26
2022-08-03T08:04:44.000Z,49.66
2022-08-03T08:05:44.000Z,48.47
2022-08-03T08:06:44.000Z,49.56
2022-08-03T08:07:44.000Z,49.16
2022-08-03T08:08:44.000Z,48.84
2022-08-03T08:09:44.000Z,49.04
2022-08-03T08:10:44.000Z,48.74
2022-08-03T08:11:44.000Z,49.63
2022-08-03T08:12:44.000Z,49.04
2022-08-03T08:13:44.000Z,48.94
2022-08-03T08:14:44.000Z,48.65
2022-08-03T08:15:44.000Z,48.13
2022-08-03T08:16:44.000Z,49.11
2022-08-03T08:17:44.000Z,47.33
2022-08-03T08:18:44.000Z,47.03
2022-08-03T08:19:43.000Z,48.00
2022-08-03T08:20:43.000Z,48.13
2022-08-03T08:21:43.000Z,48.60
2022-08-03T08:22:43.000Z,46.02
2022-08-03T08:23:43.000Z,47.31
2022-08-03T08:24:43.000Z,47.80
2022-08-03T08:24:43.000Z,47.80
2022-08-03T08:25:43.000Z,47.11
2022-08-03T08:25:43.000Z,47.11
2022-08-03T08:26:43.000Z,46.61
2022-08-03T08:26:43.000Z,46.61
2022-08-03T08:27:43.000Z,46.30
2022-08-03T08:27:43.000Z,46.30
2022-08-03T08:28:43.000Z,47.09
2022-08-03T08:28:43.000Z,47.09
2022-08-03T08:29:43.000Z,45.60
2022-08-03T08:30:43.000Z,47.38
2022-08-03T08:31:43.000Z,47.38
2022-08-03T08:32:43.000Z,46.39
2022-08-03T08:33:43.000Z,47.28
2022-08-03T08:34:43.000Z,44.78
2022-08-03T08:35:43.000Z,45.57
2022-08-03T08:36:43.000Z,45.57
2022-08-03T08:37:43.000Z,45.18
2022-08-03T08:38:43.000Z,45.57
2022-08-03T08:39:43.000Z,46.57
2022-08-03T08:40:43.000Z,45.48
2022-08-03T08:41:43.000Z,45.65
2022-08-03T08:42:43.000Z,45.38
2022-08-03T08:43:43.000Z,45.36
2022-08-03T08:44:42.000Z,45.65
2022-08-03T08:44:42.000Z,45.65
2022-08-03T08:45:42.000Z,47.14
2022-08-03T08:45:42.000Z,47.14
2022-08-03T08:46:42.000Z,46.15
2022-08-03T08:46:42.000Z,46.15
2022-08-03T08:47:42.000Z,45.26
2022-08-03T08:47:42.000Z,45.26
2022-08-03T08:48:42.000Z,48.13
2022-08-03T08:48:42.000Z,48.13
2022-08-03T08:49:42.000Z,47.14
2022-08-03T08:50:42.000Z,45.63
2022-08-03T08:51:42.000Z,45.93
2022-08-03T08:52:42.000Z,46.40
2022-08-03T08:53:42.000Z,47.00
2022-08-03T08:54:42.000Z,45.71
2022-08-03T08:55:42.000Z,45.12
2022-08-03T08:56:42.000Z,45.51
2022-08-03T08:57:42.000Z,45.89
2022-08-03T08:58:42.000Z,44.90
2022-08-03T08:59:42.000Z,45.68
2022-08-03T09:00:42.000Z,44.70
2022-08-03T09:01:42.000Z,44.20
2022-08-03T09:02:42.000Z,45.07
2022-08-03T09:03:42.000Z,43.79
2022-08-03T09:04:42.000Z,45.37
2022-08-03T09:04:42.000Z,45.37
2022-08-03T09:04:42.000Z,45.37
2022-08-03T09:05:42.000Z,42.40
2022-08-03T09:05:42.000Z,42.40
2022-08-03T09:05:42.000Z,42.40
2022-08-03T09:06:41.000Z,42.60
2022-08-03T09:06:41.000Z,42.60
2022-08-03T09:06:41.000Z,42.60
2022-08-03T09:07:41.000Z,43.69
2022-08-03T09:07:41.000Z,43.69
2022-08-03T09:07:41.000Z,43.69
2022-08-03T09:08:41.000Z,43.88
2022-08-03T09:08:41.000Z,43.88
2022-08-03T09:08:41.000Z,43.88
2022-08-03T09:09:41.000Z,42.99
2022-08-03T09:09:41.000Z,42.99
2022-08-03T09:10:41.000Z,43.39
2022-08-03T09:10:41.000Z,43.39
2022-08-03T09:11:41.000Z,43.79
2022-08-03T09:11:41.000Z,43.79
2022-08-03T09:12:41.000Z,43.29
2022-08-03T09:12:41.000Z,43.29
2022-08-03T09:13:41.000Z,43.79
2022-08-03T09:13:41.000Z,43.79
2022-08-03T09:14:41.000Z,42.97
2022-08-03T09:15:41.000Z,42.29
2022-08-03T09:16:41.000Z,42.38
2022-08-03T09:17:41.000Z,43.87
2022-08-03T09:18:41.000Z,44.36
2022-08-03T09:20:58.000Z,42.96
2022-08-03T09:20:58.000Z,43.37
2022-08-03T09:20:58.000Z,43.37
2022-08-03T09:20:58.000Z,42.96
2022-08-03T09:20:58.000Z,43.37
2022-08-03T09:20:58.000Z,42.96
2022-08-03T09:21:58.000Z,43.94
2022-08-03T09:21:58.000Z,43.94
2022-08-03T09:21:58.000Z,43.94
2022-08-03T09:22:58.000Z,42.66
2022-08-03T09:22:58.000Z,42.66
2022-08-03T09:22:58.000Z,42.66
2022-08-03T09:23:58.000Z,42.85
2022-08-03T09:23:58.000Z,42.85
2022-08-03T09:23:58.000Z,42.85
2022-08-03T09:24:58.000Z,43.65
2022-08-03T09:24:58.000Z,43.65
2022-08-03T09:25:58.000Z,45.60
2022-08-03T09:25:58.000Z,45.60
2022-08-03T09:26:58.000Z,43.52
2022-08-03T09:26:58.000Z,43.52
2022-08-03T09:27:58.000Z,42.54
2022-08-03T09:27:58.000Z,42.54
2022-08-03T09:28:58.000Z,42.74
2022-08-03T09:28:58.000Z,42.74
2022-08-03T09:29:58.000Z,42.74
2022-08-03T09:30:58.000Z,43.33
2022-08-03T09:31:58.000Z,41.55
2022-08-03T09:32:58.000Z,40.86
2022-08-03T09:33:58.000Z,40.56
2022-08-03T09:34:58.000Z,42.74
2022-08-03T09:35:58.000Z,44.32
2022-08-03T09:36:58.000Z,44.02
2022-08-03T09:37:58.000Z,42.74
2022-08-03T09:38:58.000Z,40.56
2022-08-03T09:39:58.000Z,41.04
2022-08-03T09:40:58.000Z,39.78
2022-08-03T09:41:58.000Z,40.55
2022-08-03T09:42:58.000Z,42.22
2022-08-03T09:43:58.000Z,43.31
2022-08-03T09:44:57.000Z,41.43
2022-08-03T09:45:57.000Z,41.14
2022-08-03T09:46:57.000Z,40.84
2022-08-03T09:47:57.000Z,41.24
2022-08-03T09:48:57.000Z,42.82
2022-08-03T09:49:57.000Z,40.84
2022-08-03T09:49:57.000Z,40.84
2022-08-03T09:50:57.000Z,40.94
2022-08-03T09:50:57.000Z,40.94
2022-08-03T09:51:57.000Z,41.83
2022-08-03T09:51:57.000Z,41.83
2022-08-03T09:52:57.000Z,43.11
2022-08-03T09:52:57.000Z,43.11
2022-08-03T09:53:57.000Z,43.48
2022-08-03T09:53:57.000Z,43.48
2022-08-03T09:54:57.000Z,40.33
2022-08-03T09:55:57.000Z,41.71
2022-08-03T09:56:57.000Z,41.81
2022-08-03T09:57:57.000Z,41.71
2022-08-03T09:58:57.000Z,41.59
2022-08-03T09:59:57.000Z,41.39
2022-08-03T10:00:57.000Z,40.90
2022-08-03T10:01:57.000Z,42.08
2022-08-03T10:02:57.000Z,40.70
2022-08-03T10:03:57.000Z,42.87
2022-08-03T10:04:57.000Z,43.17
2022-08-03T10:04:57.000Z,43.17
2022-08-03T10:04:57.000Z,43.17
2022-08-03T10:05:57.000Z,42.97
2022-08-03T10:05:57.000Z,42.97
2022-08-03T10:05:57.000Z,42.97
2022-08-03T10:06:57.000Z,41.09
2022-08-03T10:06:57.000Z,41.09
2022-08-03T10:06:57.000Z,41.09
2022-08-03T10:07:57.000Z,41.27
2022-08-03T10:07:57.000Z,41.27
2022-08-03T10:07:57.000Z,41.27
2022-08-03T10:08:57.000Z,40.58
2022-08-03T10:08:57.000Z,40.58
2022-08-03T10:08:57.000Z,40.58
2022-08-03T10:09:57.000Z,41.77
2022-08-03T10:09:57.000Z,41.77
2022-08-03T10:10:57.000Z,39.79
2022-08-03T10:10:57.000Z,39.79
2022-08-03T10:11:57.000Z,39.89
2022-08-03T10:11:57.000Z,39.89
2022-08-03T10:12:57.000Z,39.11
2022-08-03T10:12:57.000Z,39.11
2022-08-03T10:13:57.000Z,38.91
2022-08-03T10:13:57.000Z,38.91
2022-08-03T10:14:57.000Z,39.79
2022-08-03T10:15:57.000Z,39.70
2022-08-03T10:16:57.000Z,38.32
2022-08-03T10:17:57.000Z,39.79
2022-08-03T10:18:57.000Z,40.70
2022-08-03T10:19:57.000Z,40.98
2022-08-03T10:20:57.000Z,38.62
2022-08-03T10:21:57.000Z,38.02
2022-08-03T10:22:57.000Z,38.51
2022-08-03T10:23:57.000Z,39.70
2022-08-03T10:24:57.000Z,40.09
2022-08-03T10:25:57.000Z,40.00
2022-08-03T10:26:57.000Z,39.89
2022-08-03T10:27:57.000Z,40.29
2022-08-03T10:28:57.000Z,40.09
2022-08-03T10:29:57.000Z,40.08
2022-08-03T10:29:57.000Z,40.08
2022-08-03T10:30:57.000Z,40.56
2022-08-03T10:30:57.000Z,40.56
2022-08-03T10:31:57.000Z,39.78
2022-08-03T10:31:57.000Z,39.78
2022-08-03T10:32:57.000Z,37.91
2022-08-03T10:32:57.000Z,37.91
2022-08-03T10:33:57.000Z,39.78
2022-08-03T10:33:57.000Z,39.78
2022-08-03T10:34:56.000Z,38.99
2022-08-03T10:35:56.000Z,38.99
2022-08-03T10:36:56.000Z,39.78
2022-08-03T10:37:56.000Z,39.68
2022-08-03T10:38:56.000Z,39.68
2022-08-03T10:39:56.000Z,40.74
2022-08-03T10:40:56.000Z,41.04
2022-08-03T10:41:56.000Z,39.07
2022-08-03T10:42:56.000Z,38.68
2022-08-03T10:43:56.000Z,38.48
2022-08-03T10:44:56.000Z,37.59
2022-08-03T10:45:56.000Z,38.68
2022-08-03T10:46:56.000Z,37.69
2022-08-03T10:47:56.000Z,37.01
2022-08-03T10:48:56.000Z,38.38
2022-08-03T10:49:56.000Z,37.49
2022-08-03T10:49:56.000Z,37.49
2022-08-03T10:50:56.000Z,37.59
2022-08-03T10:50:56.000Z,37.59